sensor_id;sensor_type;location;lat;lon;timestamp;pressure;altitude;pressure_sealevel;temperature;humidity
3968;BME280;9221;42.646;23.380;2023-04-02T00:02:34;93634.28;;;10.37;62.21
3968;BME280;9221;42.646;23.380;2023-04-02T00:08:18;93572.84;;;10.05;61.88
3968;BME280;9221;42.646;23.380;2023-04-02T00:10:50;93621.78;;;10.39;61.79
3968;BME280;9221;42.646;23.380;2023-04-02T00:13:22;93582.22;;;10.08;61.33
3968;BME280;9221;42.646;23.380;2023-04-02T00:15:51;93635.59;;;10.41;61.67
3968;BME280;9221;42.646;23.380;2023-04-02T00:18:21;93614.88;;;10.38;61.29
3968;BME280;9221;42.646;23.380;2023-04-02T00:20:58;93596.47;;;10.22;61.08
3968;BME280;9221;42.646;23.380;2023-04-02T00:23:25;93623.22;;;10.50;61.16
3968;BME280;9221;42.646;23.380;2023-04-02T00:25:51;93662.22;;;10.55;61.33
3968;BME280;9221;42.646;23.380;2023-04-02T00:28:19;93584.94;;;10.23;61.22
3968;BME280;9221;42.646;23.380;2023-04-02T00:31:05;93623.66;;;10.54;60.61
3968;BME280;9221;42.646;23.380;2023-04-02T00:33:34;93572.88;;;10.28;60.83
3968;BME280;9221;42.646;23.380;2023-04-02T00:36:04;93608.50;;;10.56;60.47
3968;BME280;9221;42.646;23.380;2023-04-02T00:38:33;93560.53;;;9.97;59.91
3968;BME280;9221;42.646;23.380;2023-04-02T00:41:01;93556.19;;;10.13;60.33
3968;BME280;9221;42.646;23.380;2023-04-02T00:43:31;93615.00;;;10.45;59.95
3968;BME280;9221;42.646;23.380;2023-04-02T00:45:59;93561.97;;;10.08;60.09
3968;BME280;9221;42.646;23.380;2023-04-02T00:50:59;93611.81;;;10.49;59.93
3968;BME280;9221;42.646;23.380;2023-04-02T00:53:28;93637.16;;;10.59;60.15
3968;BME280;9221;42.646;23.380;2023-04-02T00:55:57;93562.56;;;10.19;61.13
3968;BME280;9221;42.646;23.380;2023-04-02T00:58:34;93624.78;;;10.36;62.35
3968;BME280;9221;42.646;23.380;2023-04-02T01:01:01;93576.00;;;10.01;61.25
3968;BME280;9221;42.646;23.380;2023-04-02T01:03:34;93618.22;;;10.24;60.33
3968;BME280;9221;42.646;23.380;2023-04-02T01:06:12;93582.56;;;10.05;60.35
3968;BME280;9221;42.646;23.380;2023-04-02T01:09:01;93616.16;;;10.34;61.04
3968;BME280;9221;42.646;23.380;2023-04-02T01:11:35;93625.78;;;10.27;63.67
3968;BME280;9221;42.646;23.380;2023-04-02T01:28:32;93644.13;;;8.81;73.89
3968;BME280;9221;42.646;23.380;2023-04-02T01:31:00;93645.94;;;8.89;73.51
3968;BME280;9221;42.646;23.380;2023-04-02T01:33:32;93649.88;;;8.69;73.63
3968;BME280;9221;42.646;23.380;2023-04-02T01:36:21;93647.59;;;8.90;73.94
3968;BME280;9221;42.646;23.380;2023-04-02T01:45:01;93576.09;;;8.54;72.70
3968;BME280;9221;42.646;23.380;2023-04-02T01:47:27;93635.44;;;8.89;72.95
3968;BME280;9221;42.646;23.380;2023-04-02T01:52:50;93585.97;;;8.85;70.42
3968;BME280;9221;42.646;23.380;2023-04-02T01:55:23;93583.00;;;8.96;70.06
3968;BME280;9221;42.646;23.380;2023-04-02T01:57:50;93619.16;;;9.27;69.75
3968;BME280;9221;42.646;23.380;2023-04-02T02:00:18;93622.09;;;9.24;69.92
3968;BME280;9221;42.646;23.380;2023-04-02T02:02:48;93629.69;;;9.27;69.70
3968;BME280;9221;42.646;23.380;2023-04-02T02:05:17;93623.44;;;9.11;70.08
3968;BME280;9221;42.646;23.380;2023-04-02T02:07:45;93587.13;;;8.06;73.98
3968;BME280;9221;42.646;23.380;2023-04-02T02:10:34;93696.44;;;7.73;78.04
3968;BME280;9221;42.646;23.380;2023-04-02T02:13:01;93615.28;;;7.45;79.06
3968;BME280;9221;42.646;23.380;2023-04-02T02:15:27;93529.13;;;6.71;80.51
3968;BME280;9221;42.646;23.380;2023-04-02T02:18:02;93689.81;;;7.16;81.48
3968;BME280;9221;42.646;23.380;2023-04-02T02:20:28;93644.91;;;6.93;83.69
3968;BME280;9221;42.646;23.380;2023-04-02T02:22:55;93569.56;;;6.33;84.54
3968;BME280;9221;42.646;23.380;2023-04-02T02:25:25;93640.94;;;6.53;86.48
3968;BME280;9221;42.646;23.380;2023-04-02T02:30:20;93638.53;;;6.77;85.74
3968;BME280;9221;42.646;23.380;2023-04-02T02:33:13;93639.97;;;6.72;85.63
3968;BME280;9221;42.646;23.380;2023-04-02T02:35:49;93646.09;;;6.81;86.11
3968;BME280;9221;42.646;23.380;2023-04-02T02:41:12;93522.81;;;6.20;84.96
3968;BME280;9221;42.646;23.380;2023-04-02T02:43:45;93574.50;;;6.54;85.18
3968;BME280;9221;42.646;23.380;2023-04-02T02:46:15;93623.84;;;6.85;85.19
3968;BME280;9221;42.646;23.380;2023-04-02T02:48:43;93596.81;;;6.58;85.75
3968;BME280;9221;42.646;23.380;2023-04-02T02:51:16;93675.09;;;6.97;85.12
3968;BME280;9221;42.646;23.380;2023-04-02T02:53:52;93517.75;;;6.00;85.16
3968;BME280;9221;42.646;23.380;2023-04-02T02:56:21;93583.03;;;6.56;85.32
3968;BME280;9221;42.646;23.380;2023-04-02T02:58:50;93665.19;;;6.91;85.66
3968;BME280;9221;42.646;23.380;2023-04-02T03:01:16;93642.69;;;6.44;85.38
3968;BME280;9221;42.646;23.380;2023-04-02T03:03:43;93574.88;;;6.59;85.67
3968;BME280;9221;42.646;23.380;2023-04-02T03:06:14;93636.25;;;7.19;85.41
3968;BME280;9221;42.646;23.380;2023-04-02T03:09:03;93619.28;;;7.31;83.97
3968;BME280;9221;42.646;23.380;2023-04-02T03:11:57;93645.19;;;7.60;82.64
3968;BME280;9221;42.646;23.380;2023-04-02T03:14:34;93609.41;;;7.25;82.55
3968;BME280;9221;42.646;23.380;2023-04-02T03:17:41;93652.97;;;7.70;81.82
3968;BME280;9221;42.646;23.380;2023-04-02T03:20:25;93577.63;;;7.28;81.70
3968;BME280;9221;42.646;23.380;2023-04-02T03:22:58;93642.19;;;7.82;81.92
3968;BME280;9221;42.646;23.380;2023-04-02T03:25:34;93601.00;;;7.48;81.56
3968;BME280;9221;42.646;23.380;2023-04-02T03:28:06;93648.47;;;7.62;82.01
3968;BME280;9221;42.646;23.380;2023-04-02T03:30:53;93634.66;;;7.52;81.42
3968;BME280;9221;42.646;23.380;2023-04-02T03:33:23;93693.25;;;7.61;81.83
3968;BME280;9221;42.646;23.380;2023-04-02T03:39:02;93640.72;;;7.00;84.13
3968;BME280;9221;42.646;23.380;2023-04-02T03:41:40;93603.25;;;6.46;84.95
3968;BME280;9221;42.646;23.380;2023-04-02T03:47:04;93683.41;;;6.74;85.74
3968;BME280;9221;42.646;23.380;2023-04-02T03:49:54;93622.00;;;6.23;86.53
3968;BME280;9221;42.646;23.380;2023-04-02T03:52:26;93648.16;;;6.51;87.34
3968;BME280;9221;42.646;23.380;2023-04-02T03:54:56;93518.19;;;5.50;87.11
3968;BME280;9221;42.646;23.380;2023-04-02T03:57:28;93666.09;;;6.46;87.50
3968;BME280;9221;42.646;23.380;2023-04-02T04:00:09;93635.09;;;6.23;87.97
3968;BME280;9221;42.646;23.380;2023-04-02T04:02:49;93653.81;;;6.28;88.15
3968;BME280;9221;42.646;23.380;2023-04-02T04:05:29;93657.09;;;6.30;88.48
3968;BME280;9221;42.646;23.380;2023-04-02T04:08:01;93619.69;;;5.92;87.87
3968;BME280;9221;42.646;23.380;2023-04-02T04:10:28;93593.34;;;6.03;88.01
3968;BME280;9221;42.646;23.380;2023-04-02T04:13:01;93697.28;;;6.39;87.72
3968;BME280;9221;42.646;23.380;2023-04-02T04:15:35;93753.38;;;6.36;88.22
3968;BME280;9221;42.646;23.380;2023-04-02T04:20:49;93610.88;;;6.21;87.19
3968;BME280;9221;42.646;23.380;2023-04-02T04:23:33;93679.03;;;6.83;86.40
3968;BME280;9221;42.646;23.380;2023-04-02T04:26:04;93710.28;;;6.94;85.57
3968;BME280;9221;42.646;23.380;2023-04-02T04:29:06;93627.63;;;6.64;84.57
3968;BME280;9221;42.646;23.380;2023-04-02T04:31:47;93688.56;;;6.66;84.25
3968;BME280;9221;42.646;23.380;2023-04-02T04:34:27;93645.81;;;6.84;84.47
3968;BME280;9221;42.646;23.380;2023-04-02T04:36:58;93676.56;;;7.18;83.94
3968;BME280;9221;42.646;23.380;2023-04-02T04:39:46;93698.88;;;6.86;84.11
3968;BME280;9221;42.646;23.380;2023-04-02T04:42:20;93719.53;;;6.53;85.84
3968;BME280;9221;42.646;23.380;2023-04-02T04:47:43;93693.38;;;6.25;88.31
3968;BME280;9221;42.646;23.380;2023-04-02T04:50:26;93768.72;;;6.59;87.94
3968;BME280;9221;42.646;23.380;2023-04-02T04:52:53;93713.94;;;6.66;85.98
3968;BME280;9221;42.646;23.380;2023-04-02T04:57:53;93704.84;;;6.60;86.19
3968;BME280;9221;42.646;23.380;2023-04-02T05:00:37;93648.63;;;6.18;85.97
3968;BME280;9221;42.646;23.380;2023-04-02T05:03:26;93680.47;;;6.41;85.98
3968;BME280;9221;42.646;23.380;2023-04-02T05:05:53;93635.63;;;6.63;85.73
3968;BME280;9221;42.646;23.380;2023-04-02T05:08:21;93720.00;;;7.02;85.04
3968;BME280;9221;42.646;23.380;2023-04-02T05:10:55;93716.25;;;7.23;84.20
3968;BME280;9221;42.646;23.380;2023-04-02T05:13:38;93696.22;;;7.40;83.09
3968;BME280;9221;42.646;23.380;2023-04-02T05:16:27;93692.22;;;7.09;83.55
3968;BME280;9221;42.646;23.380;2023-04-02T05:19:08;93650.38;;;6.82;82.79
3968;BME280;9221;42.646;23.380;2023-04-02T05:21:47;93721.56;;;7.13;83.08
3968;BME280;9221;42.646;23.380;2023-04-02T05:30:14;93700.66;;;7.66;80.91
3968;BME280;9221;42.646;23.380;2023-04-02T05:32:49;93720.91;;;7.82;80.54
3968;BME280;9221;42.646;23.380;2023-04-02T05:35:27;93709.88;;;7.70;81.17
3968;BME280;9221;42.646;23.380;2023-04-02T05:37:53;93706.47;;;7.77;79.80
3968;BME280;9221;42.646;23.380;2023-04-02T05:40:22;93673.66;;;7.82;79.87
3968;BME280;9221;42.646;23.380;2023-04-02T05:42:50;93717.56;;;8.32;78.39
3968;BME280;9221;42.646;23.380;2023-04-02T05:45:33;93760.03;;;8.54;78.15
3968;BME280;9221;42.646;23.380;2023-04-02T05:48:02;93714.75;;;8.60;77.69
3968;BME280;9221;42.646;23.380;2023-04-02T05:50:35;93669.41;;;8.58;76.48
3968;BME280;9221;42.646;23.380;2023-04-02T05:55:58;93674.50;;;8.68;75.27
3968;BME280;9221;42.646;23.380;2023-04-02T05:58:31;93719.69;;;8.63;76.33
3968;BME280;9221;42.646;23.380;2023-04-02T06:01:03;93622.44;;;7.69;77.90
3968;BME280;9221;42.646;23.380;2023-04-02T06:03:56;93757.97;;;8.66;78.07
3968;BME280;9221;42.646;23.380;2023-04-02T06:09:21;93709.69;;;8.67;76.87
3968;BME280;9221;42.646;23.380;2023-04-02T06:11:57;93702.63;;;8.75;75.85
3968;BME280;9221;42.646;23.380;2023-04-02T06:14:25;93784.13;;;8.84;75.73
3968;BME280;9221;42.646;23.380;2023-04-02T06:16:51;93742.13;;;9.17;75.08
3968;BME280;9221;42.646;23.380;2023-04-02T06:19:26;93728.59;;;8.95;75.13
3968;BME280;9221;42.646;23.380;2023-04-02T06:21:59;93742.47;;;9.30;75.37
3968;BME280;9221;42.646;23.380;2023-04-02T06:24:33;93688.88;;;9.23;75.27
3968;BME280;9221;42.646;23.380;2023-04-02T06:27:03;93683.59;;;9.56;74.04
3968;BME280;9221;42.646;23.380;2023-04-02T06:29:36;93683.44;;;9.49;72.66
3968;BME280;9221;42.646;23.380;2023-04-02T06:32:06;93725.19;;;9.77;73.00
3968;BME280;9221;42.646;23.380;2023-04-02T06:34:36;93650.03;;;9.41;71.98
3968;BME280;9221;42.646;23.380;2023-04-02T06:37:35;93732.81;;;10.36;71.40
3968;BME280;9221;42.646;23.380;2023-04-02T06:40:03;93684.72;;;10.26;70.60
3968;BME280;9221;42.646;23.380;2023-04-02T06:42:33;93714.94;;;10.55;70.36
3968;BME280;9221;42.646;23.380;2023-04-02T06:45:02;93726.03;;;10.81;69.91
3968;BME280;9221;42.646;23.380;2023-04-02T06:47:29;93763.50;;;11.00;69.84
3968;BME280;9221;42.646;23.380;2023-04-02T06:50:12;93740.66;;;11.15;69.24
3968;BME280;9221;42.646;23.380;2023-04-02T06:52:44;93727.31;;;11.17;68.00
3968;BME280;9221;42.646;23.380;2023-04-02T06:57:45;93675.75;;;11.06;66.58
3968;BME280;9221;42.646;23.380;2023-04-02T07:00:24;93697.03;;;11.28;66.81
3968;BME280;9221;42.646;23.380;2023-04-02T07:02:51;93751.50;;;11.67;65.97
3968;BME280;9221;42.646;23.380;2023-04-02T07:05:17;93610.56;;;10.92;65.22
3968;BME280;9221;42.646;23.380;2023-04-02T07:07:43;93713.91;;;11.65;64.99
3968;BME280;9221;42.646;23.380;2023-04-02T07:10:08;93700.69;;;11.65;64.36
3968;BME280;9221;42.646;23.380;2023-04-02T07:12:34;93765.03;;;12.10;64.88
3968;BME280;9221;42.646;23.380;2023-04-02T07:15:00;93729.66;;;11.96;63.51
3968;BME280;9221;42.646;23.380;2023-04-02T07:17:25;93763.59;;;12.23;62.95
3968;BME280;9221;42.646;23.380;2023-04-02T07:19:51;93712.97;;;11.96;62.38
3968;BME280;9221;42.646;23.380;2023-04-02T07:22:17;93790.34;;;12.58;62.15
3968;BME280;9221;42.646;23.380;2023-04-02T07:24:44;93717.47;;;12.40;61.35
3968;BME280;9221;42.646;23.380;2023-04-02T07:27:10;93756.72;;;12.88;61.30
3968;BME280;9221;42.646;23.380;2023-04-02T07:29:36;93754.53;;;12.92;60.95
3968;BME280;9221;42.646;23.380;2023-04-02T07:32:07;93707.53;;;12.94;60.69
3968;BME280;9221;42.646;23.380;2023-04-02T07:34:33;93806.38;;;13.74;59.52
3968;BME280;9221;42.646;23.380;2023-04-02T07:36:59;93797.22;;;13.98;57.72
3968;BME280;9221;42.646;23.380;2023-04-02T07:39:26;93715.19;;;13.90;56.21
3968;BME280;9221;42.646;23.380;2023-04-02T07:41:53;93799.06;;;14.54;56.23
3968;BME280;9221;42.646;23.380;2023-04-02T07:44:19;93722.28;;;14.46;54.98
3968;BME280;9221;42.646;23.380;2023-04-02T07:46:44;93775.13;;;14.76;54.28
3968;BME280;9221;42.646;23.380;2023-04-02T07:49:10;93735.09;;;14.71;53.39
3968;BME280;9221;42.646;23.380;2023-04-02T07:51:35;93719.03;;;14.86;52.69
3968;BME280;9221;42.646;23.380;2023-04-02T07:54:01;93769.84;;;15.25;52.33
3968;BME280;9221;42.646;23.380;2023-04-02T07:56:27;93776.00;;;15.38;51.41
3968;BME280;9221;42.646;23.380;2023-04-02T07:58:53;93777.25;;;15.49;50.79
3968;BME280;9221;42.646;23.380;2023-04-02T08:01:21;93810.09;;;15.35;49.87
3968;BME280;9221;42.646;23.380;2023-04-02T08:03:49;93730.66;;;15.47;48.95
3968;BME280;9221;42.646;23.380;2023-04-02T08:06:14;93790.78;;;15.61;49.53
3968;BME280;9221;42.646;23.380;2023-04-02T08:08:40;93771.34;;;15.54;50.07
3968;BME280;9221;42.646;23.380;2023-04-02T08:11:07;93791.88;;;15.80;49.48
3968;BME280;9221;42.646;23.380;2023-04-02T08:13:33;93769.38;;;16.10;49.16
3968;BME280;9221;42.646;23.380;2023-04-02T08:15:59;93786.38;;;16.08;47.46
3968;BME280;9221;42.646;23.380;2023-04-02T08:18:25;93748.53;;;16.13;45.37
3968;BME280;9221;42.646;23.380;2023-04-02T08:20:51;93769.19;;;16.31;45.06
3968;BME280;9221;42.646;23.380;2023-04-02T08:23:17;93794.75;;;16.12;44.59
3968;BME280;9221;42.646;23.380;2023-04-02T08:25:44;93713.91;;;15.46;45.25
3968;BME280;9221;42.646;23.380;2023-04-02T08:28:09;93721.69;;;15.68;45.60
3968;BME280;9221;42.646;23.380;2023-04-02T08:30:35;93719.06;;;15.81;44.81
3968;BME280;9221;42.646;23.380;2023-04-02T08:33:01;93757.69;;;16.44;43.89
3968;BME280;9221;42.646;23.380;2023-04-02T08:35:26;93773.66;;;16.44;43.05
3968;BME280;9221;42.646;23.380;2023-04-02T08:37:52;93758.97;;;16.28;42.96
3968;BME280;9221;42.646;23.380;2023-04-02T08:40:32;93774.91;;;16.08;43.51
3968;BME280;9221;42.646;23.380;2023-04-02T08:45:46;93776.53;;;15.96;44.16
3968;BME280;9221;42.646;23.380;2023-04-02T08:48:16;93776.97;;;15.93;44.02
3968;BME280;9221;42.646;23.380;2023-04-02T08:50:43;93767.97;;;16.20;44.05
3968;BME280;9221;42.646;23.380;2023-04-02T08:53:17;93779.78;;;16.65;42.62
3968;BME280;9221;42.646;23.380;2023-04-02T08:56:08;93775.88;;;16.61;41.96
3968;BME280;9221;42.646;23.380;2023-04-02T08:58:50;93803.34;;;16.41;42.39
3968;BME280;9221;42.646;23.380;2023-04-02T09:01:39;93780.03;;;16.36;42.98
3968;BME280;9221;42.646;23.380;2023-04-02T09:04:17;93750.69;;;16.63;42.09
3968;BME280;9221;42.646;23.380;2023-04-02T09:06:44;93765.13;;;17.21;41.24
3968;BME280;9221;42.646;23.380;2023-04-02T09:09:14;93720.78;;;17.65;39.77
3968;BME280;9221;42.646;23.380;2023-04-02T09:17:01;93697.84;;;18.58;37.46
3968;BME280;9221;42.646;23.380;2023-04-02T09:19:40;93812.75;;;19.33;36.90
3968;BME280;9221;42.646;23.380;2023-04-02T09:24:32;93767.97;;;19.47;36.27
3968;BME280;9221;42.646;23.380;2023-04-02T09:26:57;93720.47;;;19.72;34.69
3968;BME280;9221;42.646;23.380;2023-04-02T09:29:42;93770.84;;;19.45;34.92
3968;BME280;9221;42.646;23.380;2023-04-02T09:35:19;93763.66;;;18.71;36.55
3968;BME280;9221;42.646;23.380;2023-04-02T09:37:46;93739.19;;;19.11;35.90
3968;BME280;9221;42.646;23.380;2023-04-02T09:40:18;93749.78;;;19.98;35.16
3968;BME280;9221;42.646;23.380;2023-04-02T09:42:47;93706.25;;;19.48;34.82
3968;BME280;9221;42.646;23.380;2023-04-02T09:45:13;93782.28;;;20.13;34.28
3968;BME280;9221;42.646;23.380;2023-04-02T09:47:40;93753.09;;;20.23;32.69
3968;BME280;9221;42.646;23.380;2023-04-02T09:52:46;93747.19;;;20.45;33.52
3968;BME280;9221;42.646;23.380;2023-04-02T09:57:45;93742.88;;;21.44;32.50
3968;BME280;9221;42.646;23.380;2023-04-02T10:03:01;93731.28;;;20.08;33.62
3968;BME280;9221;42.646;23.380;2023-04-02T10:05:29;93747.94;;;19.68;33.57
3968;BME280;9221;42.646;23.380;2023-04-02T10:08:06;93742.94;;;19.41;35.41
3968;BME280;9221;42.646;23.380;2023-04-02T10:10:42;93719.94;;;19.21;35.58
3968;BME280;9221;42.646;23.380;2023-04-02T10:21:12;93736.75;;;19.71;33.19
3968;BME280;9221;42.646;23.380;2023-04-02T10:23:40;93756.25;;;20.20;32.37
3968;BME280;9221;42.646;23.380;2023-04-02T10:32:07;93793.72;;;21.62;30.28
3968;BME280;9221;42.646;23.380;2023-04-02T10:40:34;93702.19;;;22.10;28.75
3968;BME280;9221;42.646;23.380;2023-04-02T10:46:12;93764.38;;;22.19;30.46
3968;BME280;9221;42.646;23.380;2023-04-02T10:56:45;93761.78;;;22.75;30.46
3968;BME280;9221;42.646;23.380;2023-04-02T10:59:33;93751.63;;;22.43;30.91
3968;BME280;9221;42.646;23.380;2023-04-02T11:02:02;93721.59;;;22.85;31.23
3968;BME280;9221;42.646;23.380;2023-04-02T11:04:41;93719.56;;;22.92;30.67
3968;BME280;9221;42.646;23.380;2023-04-02T11:07:17;93731.41;;;22.23;30.73
3968;BME280;9221;42.646;23.380;2023-04-02T11:09:48;93719.50;;;21.16;32.58
3968;BME280;9221;42.646;23.380;2023-04-02T11:12:24;93727.44;;;21.51;33.18
3968;BME280;9221;42.646;23.380;2023-04-02T11:14:53;93731.31;;;22.01;32.50
3968;BME280;9221;42.646;23.380;2023-04-02T11:17:19;93771.28;;;22.31;30.76
3968;BME280;9221;42.646;23.380;2023-04-02T11:19:45;93661.50;;;21.84;30.93
3968;BME280;9221;42.646;23.380;2023-04-02T11:22:22;93715.22;;;22.52;31.07
3968;BME280;9221;42.646;23.380;2023-04-02T11:24:52;93715.59;;;22.78;30.60
3968;BME280;9221;42.646;23.380;2023-04-02T11:27:34;93679.66;;;22.11;30.75
3968;BME280;9221;42.646;23.380;2023-04-02T11:32:34;93736.00;;;20.84;32.83
3968;BME280;9221;42.646;23.380;2023-04-02T11:38:00;93704.16;;;20.99;33.31
3968;BME280;9221;42.646;23.380;2023-04-02T11:40:54;93712.50;;;20.74;32.94
3968;BME280;9221;42.646;23.380;2023-04-02T11:48:45;93656.00;;;20.04;33.77
3968;BME280;9221;42.646;23.380;2023-04-02T11:53:47;93718.44;;;19.56;34.87
3968;BME280;9221;42.646;23.380;2023-04-02T12:01:58;93695.63;;;19.11;35.39
3968;BME280;9221;42.646;23.380;2023-04-02T12:04:56;93695.00;;;19.27;35.24
3968;BME280;9221;42.646;23.380;2023-04-02T12:10:14;93700.38;;;19.09;35.14
3968;BME280;9221;42.646;23.380;2023-04-02T12:12:41;93741.44;;;18.96;35.52
3968;BME280;9221;42.646;23.380;2023-04-02T12:15:31;93689.25;;;18.93;35.91
3968;BME280;9221;42.646;23.380;2023-04-02T12:18:21;93686.28;;;19.02;35.68
3968;BME280;9221;42.646;23.380;2023-04-02T12:20:50;93702.78;;;18.99;35.94
3968;BME280;9221;42.646;23.380;2023-04-02T12:23:39;93685.50;;;19.32;35.84
3968;BME280;9221;42.646;23.380;2023-04-02T12:26:06;93682.31;;;19.53;34.68
3968;BME280;9221;42.646;23.380;2023-04-02T12:28:33;93672.94;;;19.32;34.98
3968;BME280;9221;42.646;23.380;2023-04-02T12:31:11;93696.81;;;19.15;35.18
3968;BME280;9221;42.646;23.380;2023-04-02T12:33:39;93636.72;;;18.50;35.86
3968;BME280;9221;42.646;23.380;2023-04-02T12:36:06;93698.16;;;18.69;35.68
3968;BME280;9221;42.646;23.380;2023-04-02T12:38:51;93668.91;;;18.55;36.49
3968;BME280;9221;42.646;23.380;2023-04-02T12:41:28;93710.31;;;18.65;36.48
3968;BME280;9221;42.646;23.380;2023-04-02T12:44:05;93665.25;;;19.05;36.06
3968;BME280;9221;42.646;23.380;2023-04-02T12:46:37;93620.13;;;18.97;35.26
3968;BME280;9221;42.646;23.380;2023-04-02T12:49:11;93687.38;;;19.43;35.25
3968;BME280;9221;42.646;23.380;2023-04-02T12:51:41;93655.09;;;19.14;34.92
3968;BME280;9221;42.646;23.380;2023-04-02T12:54:12;93642.59;;;19.08;35.16
3968;BME280;9221;42.646;23.380;2023-04-02T12:56:39;93675.06;;;19.11;35.01
3968;BME280;9221;42.646;23.380;2023-04-02T12:59:04;93670.59;;;19.05;35.01
3968;BME280;9221;42.646;23.380;2023-04-02T13:01:30;93501.31;;;18.08;35.35
3968;BME280;9221;42.646;23.380;2023-04-02T13:04:09;93688.66;;;19.10;34.82
3968;BME280;9221;42.646;23.380;2023-04-02T13:06:39;93672.34;;;19.30;34.74
3968;BME280;9221;42.646;23.380;2023-04-02T13:09:34;93556.09;;;19.33;34.00
3968;BME280;9221;42.646;23.380;2023-04-02T13:12:01;93608.97;;;20.44;32.68
3968;BME280;9221;42.646;23.380;2023-04-02T13:14:27;93650.50;;;21.23;31.73
3968;BME280;9221;42.646;23.380;2023-04-02T13:16:54;93670.88;;;21.53;31.02
3968;BME280;9221;42.646;23.380;2023-04-02T13:19:29;93599.94;;;21.60;30.66
3968;BME280;9221;42.646;23.380;2023-04-02T13:21:57;93648.03;;;22.52;29.30
3968;BME280;9221;42.646;23.380;2023-04-02T13:24:30;93651.19;;;22.66;29.21
3968;BME280;9221;42.646;23.380;2023-04-02T13:26:58;93680.47;;;22.85;28.76
3968;BME280;9221;42.646;23.380;2023-04-02T13:29:29;93648.91;;;23.19;28.72
3968;BME280;9221;42.646;23.380;2023-04-02T13:32:06;93651.72;;;23.29;27.83
3968;BME280;9221;42.646;23.380;2023-04-02T13:34:35;93594.09;;;22.20;28.64
3968;BME280;9221;42.646;23.380;2023-04-02T13:37:01;93642.78;;;22.23;29.55
3968;BME280;9221;42.646;23.380;2023-04-02T13:39:27;93603.50;;;22.00;29.96
3968;BME280;9221;42.646;23.380;2023-04-02T13:42:01;93677.78;;;22.28;29.02
3968;BME280;9221;42.646;23.380;2023-04-02T13:44:32;93651.00;;;22.51;29.16
3968;BME280;9221;42.646;23.380;2023-04-02T13:46:58;93603.25;;;22.19;28.93
3968;BME280;9221;42.646;23.380;2023-04-02T13:49:24;93662.31;;;22.19;28.90
3968;BME280;9221;42.646;23.380;2023-04-02T13:51:52;93669.13;;;21.58;29.70
3968;BME280;9221;42.646;23.380;2023-04-02T13:56:50;93671.59;;;20.78;30.55
3968;BME280;9221;42.646;23.380;2023-04-02T13:59:16;93672.88;;;20.76;30.59
3968;BME280;9221;42.646;23.380;2023-04-02T14:01:43;93636.69;;;20.26;30.77
3968;BME280;9221;42.646;23.380;2023-04-02T14:04:09;93606.53;;;19.83;30.63
3968;BME280;9221;42.646;23.380;2023-04-02T14:07:06;93588.72;;;19.11;31.72
3968;BME280;9221;42.646;23.380;2023-04-02T14:31:43;93639.84;;;19.57;31.80
3968;BME280;9221;42.646;23.380;2023-04-02T14:48:24;93678.72;;;18.99;32.87
3968;BME280;9221;42.646;23.380;2023-04-02T14:50:58;93661.50;;;18.76;32.75
3968;BME280;9221;42.646;23.380;2023-04-02T14:53:53;93640.88;;;18.46;32.75
3968;BME280;9221;42.646;23.380;2023-04-02T14:56:23;93645.03;;;18.42;32.98
3968;BME280;9221;42.646;23.380;2023-04-02T14:58:54;93675.88;;;18.38;33.17
3968;BME280;9221;42.646;23.380;2023-04-02T15:01:38;93652.53;;;18.33;33.65
3968;BME280;9221;42.646;23.380;2023-04-02T15:04:32;93644.63;;;18.38;33.60
3968;BME280;9221;42.646;23.380;2023-04-02T15:07:04;93683.59;;;18.46;33.58
3968;BME280;9221;42.646;23.380;2023-04-02T15:09:34;93624.38;;;18.12;33.04
3968;BME280;9221;42.646;23.380;2023-04-02T15:14:46;93630.91;;;18.16;33.27
3968;BME280;9221;42.646;23.380;2023-04-02T15:17:13;93632.25;;;18.25;33.10
3968;BME280;9221;42.646;23.380;2023-04-02T15:19:38;93658.22;;;18.37;33.06
3968;BME280;9221;42.646;23.380;2023-04-02T15:22:50;93678.81;;;18.30;33.31
3968;BME280;9221;42.646;23.380;2023-04-02T15:27:57;93686.66;;;18.24;33.72
3968;BME280;9221;42.646;23.380;2023-04-02T15:30:35;93659.97;;;18.24;33.87
3968;BME280;9221;42.646;23.380;2023-04-02T15:38:53;93667.88;;;17.87;33.59
3968;BME280;9221;42.646;23.380;2023-04-02T15:41:26;93702.75;;;17.92;34.17
3968;BME280;9221;42.646;23.380;2023-04-02T15:52:52;93613.19;;;18.77;32.13
3968;BME280;9221;42.646;23.380;2023-04-02T16:00:40;93671.19;;;18.52;32.38
3968;BME280;9221;42.646;23.380;2023-04-02T16:03:45;93678.84;;;18.48;32.65
3968;BME280;9221;42.646;23.380;2023-04-02T16:06:24;93712.56;;;18.24;32.41
3968;BME280;9221;42.646;23.380;2023-04-02T16:09:10;93708.41;;;18.03;32.72
3968;BME280;9221;42.646;23.380;2023-04-02T16:11:39;93552.69;;;17.03;32.94
3968;BME280;9221;42.646;23.380;2023-04-02T16:14:24;93644.16;;;17.54;32.79
3968;BME280;9221;42.646;23.380;2023-04-02T16:16:52;93677.84;;;17.73;32.55
3968;BME280;9221;42.646;23.380;2023-04-02T16:19:34;93690.44;;;17.91;32.30
3968;BME280;9221;42.646;23.380;2023-04-02T16:22:18;93650.97;;;17.75;32.01
3968;BME280;9221;42.646;23.380;2023-04-02T16:24:48;93686.13;;;17.90;32.28
3968;BME280;9221;42.646;23.380;2023-04-02T16:35:28;93703.38;;;17.31;33.20
3968;BME280;9221;42.646;23.380;2023-04-02T16:41:02;93696.47;;;17.16;33.64
3968;BME280;9221;42.646;23.380;2023-04-02T16:48:53;93680.41;;;16.78;34.24
3968;BME280;9221;42.646;23.380;2023-04-02T16:51:38;93638.13;;;16.49;34.15
3968;BME280;9221;42.646;23.380;2023-04-02T16:54:24;93638.16;;;16.36;34.62
3968;BME280;9221;42.646;23.380;2023-04-02T16:57:17;93697.88;;;16.67;34.98
3968;BME280;9221;42.646;23.380;2023-04-02T17:02:52;93699.38;;;16.36;36.16
3968;BME280;9221;42.646;23.380;2023-04-02T17:05:33;93682.63;;;16.29;36.25
3968;BME280;9221;42.646;23.380;2023-04-02T17:08:58;93717.19;;;16.42;37.00
3968;BME280;9221;42.646;23.380;2023-04-02T17:14:23;93746.69;;;16.14;37.34
3968;BME280;9221;42.646;23.380;2023-04-02T17:16:55;93739.69;;;16.39;37.45
3968;BME280;9221;42.646;23.380;2023-04-02T17:19:24;93726.41;;;16.33;37.23
3968;BME280;9221;42.646;23.380;2023-04-02T17:21:52;93729.50;;;16.16;37.49
3968;BME280;9221;42.646;23.380;2023-04-02T17:24:35;93727.03;;;16.01;37.83
3968;BME280;9221;42.646;23.380;2023-04-02T17:27:06;93690.19;;;15.78;37.87
3968;BME280;9221;42.646;23.380;2023-04-02T17:29:37;93740.94;;;16.10;37.96
3968;BME280;9221;42.646;23.380;2023-04-02T17:32:05;93687.13;;;15.61;37.94